createdAt,value
2018-09-18T00:00:29.808Z,5.97
2018-09-18T00:02:57.173Z,6.40
2018-09-18T00:05:24.694Z,6.37
2018-09-18T00:07:52.049Z,6.57
2018-09-18T00:10:19.447Z,6.57
2018-09-18T00:12:46.861Z,6.70
2018-09-18T00:15:14.222Z,6.80
2018-09-18T00:17:41.599Z,7.37
2018-09-18T00:20:08.933Z,6.80
2018-09-18T00:22:36.299Z,7.20
2018-09-18T00:25:03.628Z,7.10
2018-09-18T00:27:30.971Z,6.43
2018-09-18T00:29:58.390Z,7.10
2018-09-18T00:32:25.764Z,7.30
2018-09-18T00:34:53.073Z,7.13
2018-09-18T00:37:20.468Z,7.03
2018-09-18T00:39:47.827Z,6.03
2018-09-18T00:42:15.293Z,7.07
2018-09-18T00:44:42.672Z,6.23
2018-09-18T00:47:10.053Z,6.90
2018-09-18T00:49:37.622Z,6.60
2018-09-18T00:52:06.082Z,7.30
2018-09-18T00:54:33.420Z,7.47
2018-09-18T00:57:01.028Z,7.27
2018-09-18T00:59:28.581Z,6.40
2018-09-18T01:01:56.193Z,6.63
2018-09-18T01:04:23.522Z,7.30
2018-09-18T01:06:50.933Z,6.50
2018-09-18T01:09:18.335Z,7.07
2018-09-18T01:11:45.736Z,7.47
2018-09-18T01:14:13.488Z,6.60
2018-09-18T01:16:40.839Z,6.70
2018-09-18T01:19:08.340Z,7.73
2018-09-18T01:21:35.694Z,6.90
2018-09-18T01:24:03.059Z,6.80
2018-09-18T01:26:30.416Z,7.20
2018-09-18T01:28:57.806Z,6.97
2018-09-18T01:31:25.196Z,6.67
2018-09-18T01:33:52.549Z,6.83
2018-09-18T01:36:19.926Z,6.97
2018-09-18T01:38:47.295Z,6.20
2018-09-18T01:41:14.718Z,7.10
2018-09-18T01:43:42.159Z,6.87
2018-09-18T01:46:09.508Z,6.90
2018-09-18T01:48:36.832Z,6.37
2018-09-18T01:51:04.323Z,7.23
2018-09-18T01:53:31.669Z,7.33
2018-09-18T01:55:59.031Z,7.20
2018-09-18T01:58:26.422Z,6.60
2018-09-18T02:00:53.732Z,6.67
2018-09-18T02:03:21.025Z,6.90
2018-09-18T02:05:48.489Z,6.30
2018-09-18T02:08:15.873Z,7.50
2018-09-18T02:10:43.284Z,6.83
2018-09-18T02:13:10.634Z,7.13
2018-09-18T02:15:38.046Z,6.90
2018-09-18T02:18:05.905Z,6.93
2018-09-18T02:20:33.203Z,6.93
2018-09-18T02:23:00.527Z,7.03
2018-09-18T02:25:27.864Z,6.20
2018-09-18T02:27:55.144Z,7.33
2018-09-18T02:30:22.498Z,6.20
2018-09-18T02:32:49.901Z,7.40
2018-09-18T02:35:18.053Z,6.83
2018-09-18T02:37:45.395Z,7.70
2018-09-18T02:40:12.820Z,6.40
2018-09-18T02:42:40.159Z,6.47
2018-09-18T02:45:07.708Z,6.27
2018-09-18T02:47:36.017Z,6.63
2018-09-18T02:50:03.432Z,7.03
2018-09-18T02:52:31.315Z,7.50
2018-09-18T02:54:58.680Z,6.50
2018-09-18T02:57:26.631Z,6.80
2018-09-18T02:59:53.994Z,6.73
2018-09-18T03:02:21.598Z,6.40
2018-09-18T03:04:48.991Z,7.00
2018-09-18T03:07:16.385Z,6.63
2018-09-18T03:09:43.745Z,6.87
2018-09-18T03:12:11.932Z,6.30
2018-09-18T03:14:39.410Z,7.37
2018-09-18T03:17:06.860Z,6.70
2018-09-18T03:19:34.450Z,6.80
2018-09-18T03:22:01.810Z,6.50
2018-09-18T03:24:29.197Z,6.23
2018-09-18T03:26:56.591Z,7.13
2018-09-18T03:29:23.903Z,7.10
2018-09-18T03:31:51.238Z,6.60
2018-09-18T03:34:18.600Z,6.07
2018-09-18T03:36:45.962Z,6.70
2018-09-18T03:39:13.395Z,7.33
2018-09-18T03:41:40.822Z,7.00
2018-09-18T03:44:08.220Z,7.80
2018-09-18T03:46:35.626Z,8.10
2018-09-18T03:49:02.979Z,7.60
2018-09-18T03:51:30.318Z,8.00
2018-09-18T03:53:57.674Z,8.07
2018-09-18T03:56:25.102Z,7.53
2018-09-18T03:58:52.657Z,7.47
2018-09-18T04:01:20.037Z,7.83
2018-09-18T04:03:47.352Z,7.80
2018-09-18T04:06:14.807Z,7.57
2018-09-18T04:08:42.080Z,8.60
2018-09-18T04:11:09.516Z,7.50
2018-09-18T04:13:36.896Z,7.80
2018-09-18T04:16:04.276Z,7.17
2018-09-18T04:18:31.706Z,8.03
2018-09-18T04:20:59.069Z,7.50
2018-09-18T04:23:26.338Z,8.23
2018-09-18T04:25:53.847Z,7.40
2018-09-18T04:28:21.236Z,7.63
2018-09-18T04:30:48.680Z,8.40
2018-09-18T04:33:16.028Z,7.10
2018-09-18T04:35:43.432Z,7.17
2018-09-18T04:38:11.244Z,8.23
2018-09-18T04:40:38.606Z,7.03
2018-09-18T04:43:05.949Z,7.87
2018-09-18T04:45:33.307Z,7.20
2018-09-18T04:48:00.672Z,7.43
2018-09-18T04:50:28.144Z,7.43
2018-09-18T04:52:55.442Z,7.03
2018-09-18T04:55:22.852Z,7.30
2018-09-18T04:57:50.273Z,7.10
2018-09-18T05:00:17.687Z,7.70
2018-09-18T05:02:45.092Z,7.70
2018-09-18T05:05:13.265Z,7.47
2018-09-18T05:07:40.609Z,7.60
2018-09-18T05:10:07.973Z,7.97
2018-09-18T05:12:35.337Z,7.97
2018-09-18T05:15:02.797Z,8.23
2018-09-18T05:17:30.154Z,7.60
2018-09-18T05:19:57.558Z,7.77
2018-09-18T05:22:24.988Z,7.33
2018-09-18T05:24:52.321Z,7.83
2018-09-18T05:27:19.806Z,7.90
2018-09-18T05:29:47.202Z,8.37
2018-09-18T05:32:14.631Z,7.63
2018-09-18T05:34:42.074Z,7.63
2018-09-18T05:37:09.477Z,7.10
2018-09-18T05:39:36.914Z,7.20
2018-09-18T05:42:04.487Z,8.57
2018-09-18T05:44:31.974Z,8.13
2018-09-18T05:46:59.352Z,7.40
2018-09-18T05:49:28.678Z,7.47
2018-09-18T05:51:56.038Z,7.17
2018-09-18T05:54:23.796Z,8.73
2018-09-18T05:56:52.306Z,8.37
2018-09-18T05:59:20.493Z,8.50
2018-09-18T06:01:47.951Z,8.53
2018-09-18T06:04:15.520Z,9.43
2018-09-18T06:06:42.845Z,8.80
2018-09-18T06:09:11.532Z,9.30
2018-09-18T06:11:38.902Z,8.47
2018-09-18T06:14:06.242Z,8.83
2018-09-18T06:16:33.864Z,9.53
2018-09-18T06:19:01.432Z,8.90
2018-09-18T06:21:28.760Z,8.97
2018-09-18T06:23:56.099Z,8.97
2018-09-18T06:26:23.935Z,8.47
2018-09-18T06:28:51.431Z,9.03
2018-09-18T06:31:18.865Z,8.57
2018-09-18T06:33:46.393Z,7.80
2018-09-18T06:36:13.795Z,7.90
2018-09-18T06:38:41.179Z,8.20
2018-09-18T06:41:08.570Z,7.30
2018-09-18T06:43:36.164Z,7.70
2018-09-18T06:46:03.693Z,8.33
2018-09-18T06:48:31.193Z,7.40
2018-09-18T06:50:58.709Z,9.03
2018-09-18T06:53:26.226Z,9.00
2018-09-18T06:55:54.167Z,7.57
2018-09-18T06:58:21.494Z,8.53
2018-09-18T07:00:49.042Z,7.40
2018-09-18T07:03:16.478Z,8.20
2018-09-18T07:05:43.945Z,7.60
2018-09-18T07:08:11.277Z,7.50
2018-09-18T07:10:39.155Z,7.57
2018-09-18T07:13:06.677Z,7.23
2018-09-18T07:15:34.209Z,7.70
2018-09-18T07:18:02.602Z,6.40
2018-09-18T07:20:30.419Z,8.13
2018-09-18T07:22:58.493Z,6.40
2018-09-18T07:25:26.018Z,6.33
2018-09-18T07:27:54.361Z,6.50
2018-09-18T07:30:22.400Z,6.03
2018-09-18T07:32:50.015Z,6.53
2018-09-18T07:35:17.419Z,6.47
2018-09-18T07:37:49.587Z,6.10
2018-09-18T07:40:17.943Z,6.90
2018-09-18T07:42:45.253Z,7.00
2018-09-18T07:45:12.765Z,6.07
2018-09-18T07:47:40.428Z,6.40
2018-09-18T07:50:08.149Z,6.20
2018-09-18T07:52:36.034Z,6.30
2018-09-18T07:55:03.483Z,7.07
2018-09-18T07:57:30.873Z,6.60
2018-09-18T07:59:58.456Z,5.50
2018-09-18T08:02:26.058Z,5.93
2018-09-18T08:04:53.543Z,6.53
2018-09-18T08:07:21.232Z,6.20
2018-09-18T08:09:49.422Z,6.70
2018-09-18T08:12:16.961Z,5.70
2018-09-18T08:14:45.019Z,5.40
2018-09-18T08:17:12.688Z,6.87
2018-09-18T08:19:40.771Z,6.47
2018-09-18T08:22:08.334Z,5.37
2018-09-18T08:24:35.883Z,5.97
2018-09-18T08:27:03.419Z,5.97
2018-09-18T08:29:30.889Z,5.73
2018-09-18T08:31:58.280Z,5.23
2018-09-18T08:34:25.917Z,5.37
2018-09-18T08:36:53.937Z,5.47
2018-09-18T08:39:21.618Z,5.10
2018-09-18T08:41:49.098Z,6.40
2018-09-18T08:44:16.753Z,5.73
2018-09-18T08:46:44.750Z,5.70
2018-09-18T08:49:12.290Z,5.60
2018-09-18T08:51:39.871Z,5.30
2018-09-18T08:54:07.324Z,5.07
2018-09-18T08:56:35.112Z,4.90
2018-09-18T08:59:02.588Z,5.73
2018-09-18T09:01:30.033Z,5.50
2018-09-18T09:03:57.444Z,4.97
2018-09-18T09:06:24.870Z,5.00
2018-09-18T09:08:52.371Z,4.67
2018-09-18T09:11:19.649Z,5.60
2018-09-18T09:13:47.364Z,4.67
2018-09-18T09:16:14.777Z,5.50
2018-09-18T09:18:42.128Z,5.30
2018-09-18T09:21:09.609Z,5.30
2018-09-18T09:23:37.623Z,5.30
2018-09-18T09:26:05.052Z,5.43
2018-09-18T09:28:32.824Z,5.53
2018-09-18T09:31:00.221Z,5.63
2018-09-18T09:33:28.450Z,5.37
2018-09-18T09:35:55.852Z,5.53
2018-09-18T09:38:23.456Z,6.13
2018-09-18T09:40:50.934Z,5.07
2018-09-18T09:43:18.300Z,5.70
2018-09-18T09:45:45.997Z,5.53
2018-09-18T09:48:13.354Z,5.30
2018-09-18T09:50:40.952Z,5.87
2018-09-18T09:53:08.489Z,5.77
2018-09-18T09:55:35.938Z,6.20
2018-09-18T09:58:03.388Z,6.00
2018-09-18T10:00:36.061Z,5.07
2018-09-18T10:03:03.592Z,5.10
2018-09-18T10:05:30.998Z,5.50
2018-09-18T10:07:58.439Z,6.10
2018-09-18T10:10:25.849Z,5.73
2018-09-18T10:12:53.477Z,5.77
2018-09-18T10:15:20.950Z,5.77
2018-09-18T10:17:48.457Z,5.50
2018-09-18T10:20:16.115Z,5.93
2018-09-18T10:22:43.713Z,6.23
2018-09-18T10:25:12.423Z,6.00
2018-09-18T10:27:39.992Z,6.17
2018-09-18T10:30:07.733Z,5.73
2018-09-18T10:32:35.234Z,5.37
2018-09-18T10:35:02.637Z,5.20
2018-09-18T10:37:30.110Z,5.80
2018-09-18T10:39:57.641Z,6.10
2018-09-18T10:42:31.257Z,5.50
2018-09-18T10:44:58.770Z,5.30
2018-09-18T10:50:24.369Z,5.20
2018-09-18T10:52:52.957Z,4.67
2018-09-18T10:55:20.416Z,5.37
2018-09-18T10:57:47.763Z,5.80
2018-09-18T11:00:15.371Z,5.50
2018-09-18T11:02:43.440Z,5.10
2018-09-18T11:05:11.289Z,5.83
2018-09-18T11:07:38.943Z,4.97
2018-09-18T11:10:23.115Z,5.77
2018-09-18T11:16:12.892Z,5.20
2018-09-18T11:18:45.255Z,4.77
2018-09-18T11:21:12.682Z,7.23
2018-09-18T11:23:40.919Z,5.73
2018-09-18T11:26:09.338Z,5.03
2018-09-18T11:28:41.040Z,6.43
2018-09-18T11:31:08.543Z,5.17
2018-09-18T11:33:37.501Z,4.83
2018-09-18T11:36:05.770Z,5.00
2018-09-18T11:38:33.790Z,4.90
2018-09-18T11:41:03.926Z,4.47
2018-09-18T11:43:31.496Z,5.60
2018-09-18T11:45:59.356Z,5.17
2018-09-18T11:51:11.165Z,5.90
2018-09-18T11:53:41.744Z,5.87
2018-09-18T11:56:09.400Z,5.17
2018-09-18T11:58:49.074Z,5.50
2018-09-18T12:01:16.588Z,5.57
2018-09-18T12:03:44.022Z,5.53
2018-09-18T12:06:13.113Z,5.70
2018-09-18T12:08:40.900Z,6.63
2018-09-18T12:11:08.623Z,5.70
2018-09-18T12:13:36.178Z,5.67
2018-09-18T12:16:03.739Z,5.70
2018-09-18T12:18:31.803Z,5.70
2018-09-18T12:20:59.452Z,5.83
2018-09-18T12:23:27.398Z,5.53
2018-09-18T12:25:55.335Z,5.83
2018-09-18T12:28:22.904Z,6.00
2018-09-18T12:30:50.638Z,5.63
2018-09-18T12:33:18.141Z,5.50
2018-09-18T12:35:45.591Z,5.27
2018-09-18T12:38:13.925Z,6.00
2018-09-18T12:40:41.849Z,6.00
2018-09-18T12:43:09.308Z,5.60
2018-09-18T12:45:36.983Z,5.27
2018-09-18T12:48:04.640Z,5.60
2018-09-18T12:50:33.328Z,5.83
2018-09-18T12:53:00.736Z,6.10
2018-09-18T12:58:35.016Z,5.53
2018-09-18T13:01:08.930Z,5.17
2018-09-18T13:03:38.507Z,6.17
2018-09-18T13:06:08.012Z,5.70
2018-09-18T13:08:40.865Z,6.23
2018-09-18T13:13:54.361Z,5.70
2018-09-18T13:16:25.024Z,5.67
2018-09-18T13:18:52.556Z,5.50
2018-09-18T13:21:19.976Z,5.90
2018-09-18T13:23:47.344Z,5.40
2018-09-18T13:26:14.934Z,5.73
2018-09-18T13:28:43.352Z,5.73
2018-09-18T13:31:13.271Z,5.97
2018-09-18T13:39:19.194Z,5.93
2018-09-18T13:41:47.065Z,5.73
2018-09-18T13:44:14.745Z,6.13
2018-09-18T13:46:42.243Z,6.07
2018-09-18T13:52:06.579Z,6.73
2018-09-18T13:57:16.081Z,5.97
2018-09-18T13:59:43.545Z,6.27
2018-09-18T14:02:11.031Z,6.17
2018-09-18T14:04:39.702Z,7.17
2018-09-18T14:07:07.048Z,7.77
2018-09-18T14:09:35.868Z,9.17
2018-09-18T14:12:03.275Z,8.43
2018-09-18T14:14:30.724Z,7.73
2018-09-18T14:16:58.439Z,8.37
2018-09-18T14:19:26.176Z,7.67
2018-09-18T14:21:54.471Z,7.03
2018-09-18T14:24:21.878Z,7.00
2018-09-18T14:26:49.286Z,6.20
2018-09-18T14:29:16.708Z,5.93
2018-09-18T14:31:44.136Z,6.43
2018-09-18T14:34:11.670Z,7.47
2018-09-18T14:36:39.756Z,6.60
2018-09-18T14:39:09.788Z,7.00
2018-09-18T14:41:37.623Z,6.60
2018-09-18T14:44:05.029Z,6.50
2018-09-18T14:46:32.426Z,6.67
2018-09-18T14:48:59.860Z,6.67
2018-09-18T14:51:27.757Z,6.30
2018-09-18T14:53:55.192Z,6.67
2018-09-18T14:56:22.678Z,7.20
2018-09-18T14:58:50.449Z,6.90
2018-09-18T15:01:18.104Z,6.97
2018-09-18T15:03:45.601Z,6.20
2018-09-18T15:06:13.038Z,6.63
2018-09-18T15:08:40.461Z,6.63
2018-09-18T15:11:07.895Z,6.60
2018-09-18T15:13:35.495Z,6.23
2018-09-18T15:16:02.894Z,7.10
2018-09-18T15:18:32.190Z,7.30
2018-09-18T15:20:59.616Z,6.50
2018-09-18T15:23:27.046Z,7.10
2018-09-18T15:25:54.619Z,6.53
2018-09-18T15:28:22.189Z,6.10
2018-09-18T15:30:49.621Z,6.67
2018-09-18T15:33:17.248Z,7.10
2018-09-18T15:38:39.877Z,6.30
2018-09-18T15:41:23.888Z,6.00
2018-09-18T15:43:51.556Z,7.03
2018-09-18T15:46:19.097Z,6.73
2018-09-18T15:48:46.744Z,7.50
2018-09-18T15:51:14.432Z,7.10
2018-09-18T15:53:41.848Z,7.23
2018-09-18T15:56:09.595Z,6.70
2018-09-18T15:58:37.076Z,7.07
2018-09-18T16:01:04.647Z,6.67
2018-09-18T16:03:32.223Z,6.30
2018-09-18T16:05:59.744Z,6.83
2018-09-18T16:08:27.317Z,7.50
2018-09-18T16:10:54.820Z,6.37
2018-09-18T16:13:23.413Z,6.83
2018-09-18T16:15:51.074Z,6.63
2018-09-18T16:18:18.724Z,6.77
2018-09-18T16:20:46.854Z,6.50
2018-09-18T16:23:14.309Z,6.70
2018-09-18T16:25:41.743Z,7.30
2018-09-18T16:28:09.179Z,6.87
2018-09-18T16:30:37.032Z,6.60
2018-09-18T16:33:05.059Z,6.70
2018-09-18T16:35:32.573Z,6.60
2018-09-18T16:38:00.968Z,6.67
2018-09-18T16:40:28.417Z,6.27
2018-09-18T16:42:55.690Z,7.03
2018-09-18T16:45:23.147Z,6.23
2018-09-18T16:47:51.448Z,6.60
2018-09-18T16:50:20.109Z,6.80
2018-09-18T16:52:47.537Z,6.90
2018-09-18T16:55:15.047Z,6.53
2018-09-18T16:57:44.401Z,6.83
2018-09-18T17:00:13.840Z,7.20
2018-09-18T17:02:41.856Z,7.17
2018-09-18T17:05:09.331Z,6.90
2018-09-18T17:07:36.733Z,6.53
2018-09-18T17:10:04.771Z,6.30
2018-09-18T17:12:33.026Z,6.87
2018-09-18T17:15:00.735Z,6.40
2018-09-18T17:17:28.113Z,6.70
2018-09-18T17:19:55.526Z,6.83
2018-09-18T17:22:23.126Z,6.40
2018-09-18T17:24:50.721Z,6.47
2018-09-18T17:27:18.196Z,7.10
2018-09-18T17:29:46.444Z,7.03
2018-09-18T17:32:13.987Z,6.80
2018-09-18T17:34:42.483Z,7.30
2018-09-18T17:37:10.517Z,6.07
2018-09-18T17:39:38.090Z,6.47
2018-09-18T17:42:05.590Z,6.20
2018-09-18T17:44:32.965Z,5.50
2018-09-18T17:47:00.436Z,5.60
2018-09-18T17:49:29.744Z,5.80
2018-09-18T17:51:57.156Z,5.17
2018-09-18T17:54:24.785Z,5.13
2018-09-18T17:56:52.316Z,5.23
2018-09-18T17:59:19.735Z,5.20
2018-09-18T18:01:47.183Z,5.20
2018-09-18T18:04:14.583Z,5.23
2018-09-18T18:06:42.025Z,4.90
2018-09-18T18:09:11.059Z,5.13
2018-09-18T18:11:38.463Z,4.50
2018-09-18T18:14:05.822Z,4.33
2018-09-18T18:16:33.690Z,4.50
2018-09-18T18:19:01.225Z,4.70
2018-09-18T18:21:29.240Z,4.83
2018-09-18T18:23:56.663Z,4.63
2018-09-18T18:26:24.087Z,4.73
2018-09-18T18:28:51.455Z,5.60
2018-09-18T18:31:19.032Z,4.63
2018-09-18T18:33:46.534Z,4.70
2018-09-18T18:36:13.973Z,5.47
2018-09-18T18:38:41.416Z,5.10
2018-09-18T18:41:08.819Z,4.73
2018-09-18T18:43:36.241Z,4.83
2018-09-18T18:46:03.783Z,4.77
2018-09-18T18:48:31.460Z,4.33
2018-09-18T18:50:59.391Z,4.97
2018-09-18T18:53:26.967Z,4.60
2018-09-18T18:55:54.600Z,4.90
2018-09-18T18:58:22.150Z,5.50
2018-09-18T19:00:51.551Z,4.50
2018-09-18T19:03:19.617Z,5.47
2018-09-18T19:05:47.260Z,4.57
2018-09-18T19:08:14.859Z,4.40
2018-09-18T19:10:42.381Z,4.70
2018-09-18T19:13:09.921Z,5.40
2018-09-18T19:15:38.563Z,4.20
2018-09-18T19:18:06.426Z,4.47
2018-09-18T19:20:33.937Z,5.40
2018-09-18T19:23:01.814Z,4.60
2018-09-18T19:25:29.729Z,5.00
2018-09-18T19:27:57.327Z,5.17
2018-09-18T19:30:24.866Z,4.97
2018-09-18T19:32:54.812Z,5.60
2018-09-18T19:35:22.820Z,4.47
2018-09-18T19:37:50.376Z,5.90
2018-09-18T19:40:17.950Z,5.27
2018-09-18T19:42:56.749Z,5.47
2018-09-18T19:45:24.319Z,5.80
2018-09-18T19:47:51.955Z,5.30
2018-09-18T19:50:19.527Z,5.53
2018-09-18T19:52:48.014Z,6.00
2018-09-18T19:55:16.027Z,5.60
2018-09-18T19:57:43.656Z,8.20
2018-09-18T20:00:12.089Z,6.77
2018-09-18T20:02:40.525Z,6.17
2018-09-18T20:05:08.415Z,7.53
2018-09-18T20:07:36.345Z,7.40
2018-09-18T20:10:04.497Z,7.17
2018-09-18T20:12:32.073Z,6.03
2018-09-18T20:14:59.630Z,6.70
2018-09-18T20:17:27.744Z,5.90
2018-09-18T20:19:55.676Z,6.40
2018-09-18T20:22:23.093Z,6.40
2018-09-18T20:24:50.571Z,6.60
2018-09-18T20:27:20.905Z,6.77
2018-09-18T20:29:48.420Z,6.63
2018-09-18T20:32:15.963Z,6.07
2018-09-18T20:34:44.698Z,7.43
2018-09-18T20:37:12.295Z,6.83
2018-09-18T20:39:39.811Z,6.80
2018-09-18T20:42:07.455Z,6.20
2018-09-18T20:44:34.917Z,7.20
2018-09-18T20:47:03.268Z,7.50
2018-09-18T20:49:31.747Z,7.37
2018-09-18T20:51:59.972Z,6.80
2018-09-18T20:54:27.981Z,8.10
2018-09-18T20:56:59.652Z,7.73
2018-09-18T20:59:27.631Z,7.23
2018-09-18T21:01:55.131Z,8.80
2018-09-18T21:04:23.226Z,7.70
2018-09-18T21:06:51.484Z,8.30
2018-09-18T21:09:18.927Z,7.70
2018-09-18T21:11:46.316Z,7.30
2018-09-18T21:14:13.958Z,7.77
2018-09-18T21:16:41.933Z,7.07
2018-09-18T21:19:09.922Z,7.50
2018-09-18T21:21:37.378Z,6.73
2018-09-18T21:24:05.058Z,7.50
2018-09-18T21:26:32.571Z,8.60
2018-09-18T21:29:00.157Z,7.50
2018-09-18T21:31:28.602Z,7.70
2018-09-18T21:33:56.025Z,7.33
2018-09-18T21:36:23.431Z,6.60
2018-09-18T21:38:53.063Z,6.83
2018-09-18T21:41:20.534Z,7.50
2018-09-18T21:43:48.139Z,7.67
2018-09-18T21:46:15.602Z,6.73
2018-09-18T21:48:43.068Z,8.00
2018-09-18T21:51:10.494Z,7.03
2018-09-18T21:53:37.843Z,7.30
2018-09-18T21:56:05.446Z,7.27
2018-09-18T21:58:33.005Z,7.00
2018-09-18T22:01:05.319Z,6.63
2018-09-18T22:03:33.122Z,6.87
2018-09-18T22:06:00.801Z,7.13
2018-09-18T22:08:28.164Z,6.33
2018-09-18T22:10:55.622Z,6.33
2018-09-18T22:13:23.023Z,6.50
2018-09-18T22:15:50.420Z,6.80
2018-09-18T22:18:19.325Z,6.73
2018-09-18T22:20:47.254Z,6.93
2018-09-18T22:23:15.678Z,5.90
2018-09-18T22:25:43.159Z,5.87
2018-09-18T22:28:10.689Z,5.87
2018-09-18T22:30:38.090Z,6.27
2018-09-18T22:33:06.171Z,6.17
2018-09-18T22:35:33.810Z,6.10
2018-09-18T22:38:01.302Z,6.40
2018-09-18T22:40:29.221Z,6.37
2018-09-18T22:42:57.166Z,6.47
2018-09-18T22:45:24.479Z,6.33
2018-09-18T22:47:51.850Z,5.70
2018-09-18T22:50:21.117Z,6.40
2018-09-18T22:52:48.553Z,6.23
2018-09-18T22:55:16.313Z,6.60
2018-09-18T22:57:43.754Z,6.17
2018-09-18T23:00:11.386Z,6.20
2018-09-18T23:02:39.120Z,6.20
2018-09-18T23:05:06.946Z,6.87
2018-09-18T23:07:34.544Z,6.70
2018-09-18T23:10:02.046Z,6.33
2018-09-18T23:12:30.535Z,6.47
2018-09-18T23:14:57.948Z,7.07
2018-09-18T23:17:25.515Z,6.20
2018-09-18T23:19:53.483Z,6.37
2018-09-18T23:22:21.316Z,6.97
2018-09-18T23:24:48.748Z,6.23
2018-09-18T23:27:16.168Z,6.73
2018-09-18T23:29:43.526Z,6.70
2018-09-18T23:32:15.298Z,6.90
2018-09-18T23:34:42.732Z,6.40
2018-09-18T23:37:10.130Z,6.13
2018-09-18T23:39:37.460Z,6.40
2018-09-18T23:42:04.954Z,6.50
2018-09-18T23:44:32.922Z,6.67
2018-09-18T23:47:00.660Z,6.20
2018-09-18T23:49:28.349Z,7.10
2018-09-18T23:51:56.194Z,6.83
2018-09-18T23:54:23.741Z,6.10
2018-09-18T23:56:51.410Z,5.70
2018-09-18T23:59:18.948Z,5.47
